sensor_id;sensor_type;location;lat;lon;timestamp;temperature;humidity
13521;DHT22;6832;51.186;3.236;2023-08-20T00:02:08;29.30;55.00
13521;DHT22;6832;51.186;3.236;2023-08-20T00:04:36;29.30;55.60
13521;DHT22;6832;51.186;3.236;2023-08-20T00:07:04;29.30;55.00
13521;DHT22;6832;51.186;3.236;2023-08-20T00:09:31;29.30;55.00
13521;DHT22;6832;51.186;3.236;2023-08-20T00:12:00;29.30;55.00
13521;DHT22;6832;51.186;3.236;2023-08-20T00:14:52;29.30;55.00
13521;DHT22;6832;51.186;3.236;2023-08-20T00:17:20;29.30;55.00
13521;DHT22;6832;51.186;3.236;2023-08-20T00:19:48;29.30;55.00
13521;DHT22;6832;51.186;3.236;2023-08-20T00:22:16;29.30;55.00
13521;DHT22;6832;51.186;3.236;2023-08-20T00:24:43;29.30;55.00
13521;DHT22;6832;51.186;3.236;2023-08-20T00:27:12;29.30;55.30
13521;DHT22;6832;51.186;3.236;2023-08-20T00:29:39;29.30;55.00
13521;DHT22;6832;51.186;3.236;2023-08-20T00:32:06;29.30;55.00
13521;DHT22;6832;51.186;3.236;2023-08-20T00:34:33;29.30;55.00
13521;DHT22;6832;51.186;3.236;2023-08-20T00:37:00;29.30;55.00
13521;DHT22;6832;51.186;3.236;2023-08-20T00:39:28;29.30;55.00
13521;DHT22;6832;51.186;3.236;2023-08-20T00:41:55;29.20;54.90
13521;DHT22;6832;51.186;3.236;2023-08-20T00:44:24;29.20;54.90
13521;DHT22;6832;51.186;3.236;2023-08-20T00:46:51;29.20;54.90
13521;DHT22;6832;51.186;3.236;2023-08-20T00:49:18;29.30;55.00
13521;DHT22;6832;51.186;3.236;2023-08-20T00:51:45;29.20;54.90
13521;DHT22;6832;51.186;3.236;2023-08-20T00:54:13;29.20;54.90
13521;DHT22;6832;51.186;3.236;2023-08-20T00:56:40;29.20;54.90
13521;DHT22;6832;51.186;3.236;2023-08-20T00:59:07;29.20;54.90
13521;DHT22;6832;51.186;3.236;2023-08-20T01:01:35;29.20;54.90
13521;DHT22;6832;51.186;3.236;2023-08-20T01:04:03;29.20;54.90
13521;DHT22;6832;51.186;3.236;2023-08-20T01:06:42;29.20;55.00
13521;DHT22;6832;51.186;3.236;2023-08-20T01:09:15;29.20;54.90
13521;DHT22;6832;51.186;3.236;2023-08-20T01:11:50;29.20;54.90
13521;DHT22;6832;51.186;3.236;2023-08-20T01:14:18;29.20;54.90
13521;DHT22;6832;51.186;3.236;2023-08-20T01:16:46;29.20;54.90
13521;DHT22;6832;51.186;3.236;2023-08-20T01:19:17;29.20;54.90
13521;DHT22;6832;51.186;3.236;2023-08-20T01:22:05;29.10;54.80
13521;DHT22;6832;51.186;3.236;2023-08-20T01:24:47;29.10;54.80
13521;DHT22;6832;51.186;3.236;2023-08-20T01:27:32;29.10;55.40
13521;DHT22;6832;51.186;3.236;2023-08-20T01:30:09;29.10;54.80
13521;DHT22;6832;51.186;3.236;2023-08-20T01:32:37;29.10;54.90
13521;DHT22;6832;51.186;3.236;2023-08-20T01:35:08;29.10;54.80
13521;DHT22;6832;51.186;3.236;2023-08-20T01:37:35;29.10;54.90
13521;DHT22;6832;51.186;3.236;2023-08-20T01:40:02;29.10;54.90
13521;DHT22;6832;51.186;3.236;2023-08-20T01:42:30;29.10;54.90
13521;DHT22;6832;51.186;3.236;2023-08-20T01:44:57;29.10;54.90
13521;DHT22;6832;51.186;3.236;2023-08-20T01:47:25;29.10;54.90
13521;DHT22;6832;51.186;3.236;2023-08-20T01:49:52;29.00;54.80
13521;DHT22;6832;51.186;3.236;2023-08-20T01:52:19;29.10;54.90
13521;DHT22;6832;51.186;3.236;2023-08-20T01:54:46;29.10;54.90
13521;DHT22;6832;51.186;3.236;2023-08-20T01:57:13;29.10;54.90
13521;DHT22;6832;51.186;3.236;2023-08-20T01:59:40;29.00;54.90
13521;DHT22;6832;51.186;3.236;2023-08-20T02:02:07;29.00;54.80
13521;DHT22;6832;51.186;3.236;2023-08-20T02:04:35;29.00;55.50
13521;DHT22;6832;51.186;3.236;2023-08-20T02:07:02;29.00;54.90
13521;DHT22;6832;51.186;3.236;2023-08-20T02:09:29;29.00;54.90
13521;DHT22;6832;51.186;3.236;2023-08-20T02:11:55;29.00;54.90
13521;DHT22;6832;51.186;3.236;2023-08-20T02:14:22;29.00;54.90
13521;DHT22;6832;51.186;3.236;2023-08-20T02:16:49;29.00;54.90
13521;DHT22;6832;51.186;3.236;2023-08-20T02:19:16;29.00;54.90
13521;DHT22;6832;51.186;3.236;2023-08-20T02:21:45;29.00;54.90
13521;DHT22;6832;51.186;3.236;2023-08-20T02:24:12;29.00;54.90
13521;DHT22;6832;51.186;3.236;2023-08-20T02:26:38;29.00;54.90
13521;DHT22;6832;51.186;3.236;2023-08-20T02:29:05;29.00;54.90
13521;DHT22;6832;51.186;3.236;2023-08-20T02:31:32;29.00;54.90
13521;DHT22;6832;51.186;3.236;2023-08-20T02:33:59;29.00;54.90
13521;DHT22;6832;51.186;3.236;2023-08-20T02:36:26;28.90;54.80
13521;DHT22;6832;51.186;3.236;2023-08-20T02:38:54;29.00;54.90
13521;DHT22;6832;51.186;3.236;2023-08-20T02:41:22;28.90;54.80
13521;DHT22;6832;51.186;3.236;2023-08-20T02:43:48;29.00;54.90
13521;DHT22;6832;51.186;3.236;2023-08-20T02:46:15;28.90;54.80
13521;DHT22;6832;51.186;3.236;2023-08-20T02:48:42;28.90;54.80
13521;DHT22;6832;51.186;3.236;2023-08-20T02:51:09;28.90;54.80
13521;DHT22;6832;51.186;3.236;2023-08-20T02:53:36;28.90;54.80
13521;DHT22;6832;51.186;3.236;2023-08-20T02:56:05;28.90;54.80
13521;DHT22;6832;51.186;3.236;2023-08-20T02:58:31;28.90;54.80
13521;DHT22;6832;51.186;3.236;2023-08-20T03:00:58;28.80;54.80
13521;DHT22;6832;51.186;3.236;2023-08-20T03:03:25;28.90;54.80
13521;DHT22;6832;51.186;3.236;2023-08-20T03:05:53;28.90;54.90
13521;DHT22;6832;51.186;3.236;2023-08-20T03:08:20;28.80;54.80
13521;DHT22;6832;51.186;3.236;2023-08-20T03:10:47;28.80;54.80
13521;DHT22;6832;51.186;3.236;2023-08-20T03:13:15;28.80;55.40
13521;DHT22;6832;51.186;3.236;2023-08-20T03:15:42;28.80;54.80
13521;DHT22;6832;51.186;3.236;2023-08-20T03:18:09;28.80;54.80
13521;DHT22;6832;51.186;3.236;2023-08-20T03:20:36;28.80;54.80
13521;DHT22;6832;51.186;3.236;2023-08-20T03:23:03;28.80;54.80
13521;DHT22;6832;51.186;3.236;2023-08-20T03:25:30;28.80;54.80
13521;DHT22;6832;51.186;3.236;2023-08-20T03:27:57;28.80;54.80
13521;DHT22;6832;51.186;3.236;2023-08-20T03:30:25;28.80;54.80
13521;DHT22;6832;51.186;3.236;2023-08-20T03:32:53;28.80;54.80
13521;DHT22;6832;51.186;3.236;2023-08-20T03:35:20;28.70;54.80
13521;DHT22;6832;51.186;3.236;2023-08-20T03:37:47;28.80;54.80
13521;DHT22;6832;51.186;3.236;2023-08-20T03:40:14;28.80;54.80
13521;DHT22;6832;51.186;3.236;2023-08-20T03:42:41;28.70;54.70
13521;DHT22;6832;51.186;3.236;2023-08-20T03:45:08;28.70;54.80
13521;DHT22;6832;51.186;3.236;2023-08-20T03:47:36;28.70;54.70
13521;DHT22;6832;51.186;3.236;2023-08-20T03:50:04;28.70;54.70
13521;DHT22;6832;51.186;3.236;2023-08-20T03:52:31;28.70;54.80
13521;DHT22;6832;51.186;3.236;2023-08-20T03:54:58;28.70;54.70
13521;DHT22;6832;51.186;3.236;2023-08-20T03:57:25;28.70;54.80
13521;DHT22;6832;51.186;3.236;2023-08-20T03:59:52;28.70;54.80
13521;DHT22;6832;51.186;3.236;2023-08-20T04:02:19;28.70;54.80
13521;DHT22;6832;51.186;3.236;2023-08-20T04:04:47;28.70;54.80
13521;DHT22;6832;51.186;3.236;2023-08-20T04:07:14;28.70;54.80
13521;DHT22;6832;51.186;3.236;2023-08-20T04:09:40;28.70;54.80
13521;DHT22;6832;51.186;3.236;2023-08-20T04:12:08;28.70;54.80
13521;DHT22;6832;51.186;3.236;2023-08-20T04:14:35;28.70;54.80
13521;DHT22;6832;51.186;3.236;2023-08-20T04:17:02;28.70;54.80
13521;DHT22;6832;51.186;3.236;2023-08-20T04:19:29;28.60;54.80
13521;DHT22;6832;51.186;3.236;2023-08-20T04:21:57;28.60;54.70
13521;DHT22;6832;51.186;3.236;2023-08-20T04:24:24;28.60;54.70
13521;DHT22;6832;51.186;3.236;2023-08-20T04:26:51;28.60;54.80
13521;DHT22;6832;51.186;3.236;2023-08-20T04:29:18;28.60;54.80
13521;DHT22;6832;51.186;3.236;2023-08-20T04:31:45;28.60;54.80
13521;DHT22;6832;51.186;3.236;2023-08-20T04:34:12;28.60;54.80
13521;DHT22;6832;51.186;3.236;2023-08-20T04:36:38;28.50;54.70
13521;DHT22;6832;51.186;3.236;2023-08-20T04:39:07;28.60;54.80
13521;DHT22;6832;51.186;3.236;2023-08-20T04:41:34;28.50;54.70
13521;DHT22;6832;51.186;3.236;2023-08-20T04:44:00;28.50;54.70
13521;DHT22;6832;51.186;3.236;2023-08-20T04:46:27;28.50;54.70
13521;DHT22;6832;51.186;3.236;2023-08-20T04:48:54;28.50;54.80
13521;DHT22;6832;51.186;3.236;2023-08-20T04:51:21;28.50;54.90
13521;DHT22;6832;51.186;3.236;2023-08-20T04:53:48;28.50;54.80
13521;DHT22;6832;51.186;3.236;2023-08-20T04:56:17;28.50;54.70
13521;DHT22;6832;51.186;3.236;2023-08-20T04:58:44;28.50;54.70
13521;DHT22;6832;51.186;3.236;2023-08-20T05:01:11;28.50;54.70
13521;DHT22;6832;51.186;3.236;2023-08-20T05:03:38;28.50;54.70
13521;DHT22;6832;51.186;3.236;2023-08-20T05:06:05;28.50;54.70
13521;DHT22;6832;51.186;3.236;2023-08-20T05:08:32;28.50;54.70
13521;DHT22;6832;51.186;3.236;2023-08-20T05:10:59;28.40;54.60
13521;DHT22;6832;51.186;3.236;2023-08-20T05:13:28;28.50;54.70
13521;DHT22;6832;51.186;3.236;2023-08-20T05:15:55;28.50;54.70
13521;DHT22;6832;51.186;3.236;2023-08-20T05:18:22;28.50;54.70
13521;DHT22;6832;51.186;3.236;2023-08-20T05:20:49;28.50;54.70
13521;DHT22;6832;51.186;3.236;2023-08-20T05:23:15;28.40;54.70
13521;DHT22;6832;51.186;3.236;2023-08-20T05:25:42;28.40;54.60
13521;DHT22;6832;51.186;3.236;2023-08-20T05:28:09;28.40;54.70
13521;DHT22;6832;51.186;3.236;2023-08-20T05:30:38;28.40;54.60
13521;DHT22;6832;51.186;3.236;2023-08-20T05:33:04;28.40;54.60
13521;DHT22;6832;51.186;3.236;2023-08-20T05:35:31;28.40;54.60
13521;DHT22;6832;51.186;3.236;2023-08-20T05:37:58;28.40;54.60
13521;DHT22;6832;51.186;3.236;2023-08-20T05:40:25;28.40;54.70
13521;DHT22;6832;51.186;3.236;2023-08-20T05:42:52;28.40;54.60
13521;DHT22;6832;51.186;3.236;2023-08-20T05:45:19;28.40;54.60
13521;DHT22;6832;51.186;3.236;2023-08-20T05:47:47;28.40;54.60
13521;DHT22;6832;51.186;3.236;2023-08-20T05:50:17;28.40;54.60
13521;DHT22;6832;51.186;3.236;2023-08-20T05:52:45;28.40;54.70
13521;DHT22;6832;51.186;3.236;2023-08-20T05:55:13;28.40;54.70
13521;DHT22;6832;51.186;3.236;2023-08-20T05:57:41;28.30;54.60
13521;DHT22;6832;51.186;3.236;2023-08-20T06:00:09;28.40;54.70
13521;DHT22;6832;51.186;3.236;2023-08-20T06:02:36;28.40;54.70
13521;DHT22;6832;51.186;3.236;2023-08-20T06:05:05;28.40;54.70
13521;DHT22;6832;51.186;3.236;2023-08-20T06:07:32;28.40;54.70
13521;DHT22;6832;51.186;3.236;2023-08-20T06:09:59;28.40;54.70
13521;DHT22;6832;51.186;3.236;2023-08-20T06:12:26;28.30;54.70
13521;DHT22;6832;51.186;3.236;2023-08-20T06:14:55;28.40;54.80
13521;DHT22;6832;51.186;3.236;2023-08-20T06:17:23;28.40;54.80
13521;DHT22;6832;51.186;3.236;2023-08-20T06:19:50;28.30;54.70
13521;DHT22;6832;51.186;3.236;2023-08-20T06:22:18;28.40;54.90
13521;DHT22;6832;51.186;3.236;2023-08-20T06:24:45;28.30;54.80
13521;DHT22;6832;51.186;3.236;2023-08-20T06:27:12;28.30;54.80
13521;DHT22;6832;51.186;3.236;2023-08-20T06:29:39;28.40;54.90
13521;DHT22;6832;51.186;3.236;2023-08-20T06:32:06;28.30;54.80
13521;DHT22;6832;51.186;3.236;2023-08-20T06:34:34;28.40;54.90
13521;DHT22;6832;51.186;3.236;2023-08-20T06:38:51;28.40;54.30
13521;DHT22;6832;51.186;3.236;2023-08-20T06:41:18;28.40;54.80
13521;DHT22;6832;51.186;3.236;2023-08-20T06:43:45;28.40;54.80
13521;DHT22;6832;51.186;3.236;2023-08-20T06:46:12;28.40;54.80
13521;DHT22;6832;51.186;3.236;2023-08-20T06:48:39;28.40;54.90
13521;DHT22;6832;51.186;3.236;2023-08-20T06:51:11;28.40;54.80
13521;DHT22;6832;51.186;3.236;2023-08-20T06:53:38;28.40;54.90
13521;DHT22;6832;51.186;3.236;2023-08-20T06:56:07;28.40;54.90
13521;DHT22;6832;51.186;3.236;2023-08-20T06:58:35;28.40;54.90
13521;DHT22;6832;51.186;3.236;2023-08-20T07:01:02;28.40;54.90
13521;DHT22;6832;51.186;3.236;2023-08-20T07:03:34;28.40;54.90
13521;DHT22;6832;51.186;3.236;2023-08-20T07:06:02;28.40;54.80
13521;DHT22;6832;51.186;3.236;2023-08-20T07:08:29;28.40;54.80
13521;DHT22;6832;51.186;3.236;2023-08-20T07:10:56;28.40;54.80
13521;DHT22;6832;51.186;3.236;2023-08-20T07:13:24;28.40;54.80
13521;DHT22;6832;51.186;3.236;2023-08-20T07:15:51;28.40;54.80
13521;DHT22;6832;51.186;3.236;2023-08-20T07:18:18;28.50;54.80
13521;DHT22;6832;51.186;3.236;2023-08-20T07:20:45;28.50;55.40
13521;DHT22;6832;51.186;3.236;2023-08-20T07:23:12;28.50;54.80
13521;DHT22;6832;51.186;3.236;2023-08-20T07:26:04;28.50;54.20
13521;DHT22;6832;51.186;3.236;2023-08-20T07:28:31;28.50;54.70
13521;DHT22;6832;51.186;3.236;2023-08-20T07:31:12;28.40;54.70
13521;DHT22;6832;51.186;3.236;2023-08-20T07:33:38;28.50;54.70
13521;DHT22;6832;51.186;3.236;2023-08-20T07:36:05;28.50;54.70
13521;DHT22;6832;51.186;3.236;2023-08-20T07:38:32;28.50;54.70
13521;DHT22;6832;51.186;3.236;2023-08-20T07:41:01;28.50;54.80
13521;DHT22;6832;51.186;3.236;2023-08-20T07:43:28;28.50;54.80
13521;DHT22;6832;51.186;3.236;2023-08-20T07:45:55;28.50;54.80
13521;DHT22;6832;51.186;3.236;2023-08-20T07:48:22;28.50;54.80
13521;DHT22;6832;51.186;3.236;2023-08-20T07:50:49;28.50;54.80
13521;DHT22;6832;51.186;3.236;2023-08-20T07:53:16;28.50;54.80
13521;DHT22;6832;51.186;3.236;2023-08-20T07:55:42;28.60;54.80
13521;DHT22;6832;51.186;3.236;2023-08-20T07:58:11;28.60;54.90
13521;DHT22;6832;51.186;3.236;2023-08-20T08:00:38;28.60;54.90
13521;DHT22;6832;51.186;3.236;2023-08-20T08:03:05;28.60;54.90
13521;DHT22;6832;51.186;3.236;2023-08-20T08:05:32;28.60;54.90
13521;DHT22;6832;51.186;3.236;2023-08-20T08:07:59;28.70;55.00
13521;DHT22;6832;51.186;3.236;2023-08-20T08:10:25;28.60;55.00
13521;DHT22;6832;51.186;3.236;2023-08-20T08:12:52;28.70;55.00
13521;DHT22;6832;51.186;3.236;2023-08-20T08:15:20;28.70;55.00
13521;DHT22;6832;51.186;3.236;2023-08-20T08:17:47;28.70;55.00
13521;DHT22;6832;51.186;3.236;2023-08-20T08:20:14;28.70;55.00
13521;DHT22;6832;51.186;3.236;2023-08-20T08:22:41;28.70;54.90
13521;DHT22;6832;51.186;3.236;2023-08-20T08:25:08;28.80;55.00
13521;DHT22;6832;51.186;3.236;2023-08-20T08:27:36;28.80;55.00
13521;DHT22;6832;51.186;3.236;2023-08-20T08:30:03;28.80;55.00
13521;DHT22;6832;51.186;3.236;2023-08-20T08:32:32;28.80;55.00
13521;DHT22;6832;51.186;3.236;2023-08-20T08:34:59;28.80;55.00
13521;DHT22;6832;51.186;3.236;2023-08-20T08:37:26;28.80;55.50
13521;DHT22;6832;51.186;3.236;2023-08-20T08:39:52;28.80;55.00
13521;DHT22;6832;51.186;3.236;2023-08-20T08:42:22;28.80;55.00
13521;DHT22;6832;51.186;3.236;2023-08-20T08:44:49;28.90;55.00
13521;DHT22;6832;51.186;3.236;2023-08-20T08:47:16;29.00;55.10
13521;DHT22;6832;51.186;3.236;2023-08-20T08:49:46;29.00;55.10
13521;DHT22;6832;51.186;3.236;2023-08-20T08:52:14;29.00;55.10
13521;DHT22;6832;51.186;3.236;2023-08-20T08:54:42;29.00;55.00
13521;DHT22;6832;51.186;3.236;2023-08-20T08:57:10;29.00;55.00
13521;DHT22;6832;51.186;3.236;2023-08-20T08:59:37;29.10;55.10
13521;DHT22;6832;51.186;3.236;2023-08-20T09:02:08;29.10;55.10
13521;DHT22;6832;51.186;3.236;2023-08-20T09:04:38;29.10;55.10
13521;DHT22;6832;51.186;3.236;2023-08-20T09:07:11;29.20;55.10
13521;DHT22;6832;51.186;3.236;2023-08-20T09:09:42;29.20;55.10
13521;DHT22;6832;51.186;3.236;2023-08-20T09:12:13;29.20;55.10
13521;DHT22;6832;51.186;3.236;2023-08-20T09:14:41;29.30;55.20
13521;DHT22;6832;51.186;3.236;2023-08-20T09:17:10;29.30;55.10
13521;DHT22;6832;51.186;3.236;2023-08-20T09:19:38;29.30;55.10
13521;DHT22;6832;51.186;3.236;2023-08-20T09:22:06;29.30;55.00
13521;DHT22;6832;51.186;3.236;2023-08-20T09:24:38;29.40;55.10
13521;DHT22;6832;51.186;3.236;2023-08-20T09:27:05;29.40;55.10
13521;DHT22;6832;51.186;3.236;2023-08-20T09:29:33;29.40;55.10
13521;DHT22;6832;51.186;3.236;2023-08-20T09:32:01;29.50;55.10
13521;DHT22;6832;51.186;3.236;2023-08-20T09:34:38;29.50;55.10
13521;DHT22;6832;51.186;3.236;2023-08-20T09:37:09;29.60;55.10
13521;DHT22;6832;51.186;3.236;2023-08-20T09:39:36;29.60;55.00
13521;DHT22;6832;51.186;3.236;2023-08-20T09:42:04;29.60;55.00
13521;DHT22;6832;51.186;3.236;2023-08-20T09:44:33;29.70;55.00
13521;DHT22;6832;51.186;3.236;2023-08-20T09:47:03;29.70;55.00
13521;DHT22;6832;51.186;3.236;2023-08-20T09:49:35;29.80;55.00
13521;DHT22;6832;51.186;3.236;2023-08-20T09:52:04;29.80;54.90
13521;DHT22;6832;51.186;3.236;2023-08-20T09:54:45;29.90;55.00
13521;DHT22;6832;51.186;3.236;2023-08-20T09:57:27;29.90;54.90
13521;DHT22;6832;51.186;3.236;2023-08-20T09:59:56;30.00;54.90
13521;DHT22;6832;51.186;3.236;2023-08-20T10:02:24;30.00;54.80
13521;DHT22;6832;51.186;3.236;2023-08-20T10:04:52;30.00;54.80
13521;DHT22;6832;51.186;3.236;2023-08-20T10:07:19;30.10;54.80
13521;DHT22;6832;51.186;3.236;2023-08-20T10:09:49;30.20;54.80
13521;DHT22;6832;51.186;3.236;2023-08-20T10:12:18;30.20;54.70
13521;DHT22;6832;51.186;3.236;2023-08-20T10:14:45;30.20;54.60
13521;DHT22;6832;51.186;3.236;2023-08-20T10:17:12;30.30;54.60
13521;DHT22;6832;51.186;3.236;2023-08-20T10:19:41;30.30;54.60
13521;DHT22;6832;51.186;3.236;2023-08-20T10:22:08;30.40;54.60
13521;DHT22;6832;51.186;3.236;2023-08-20T10:24:47;30.50;55.20
13521;DHT22;6832;51.186;3.236;2023-08-20T10:27:24;30.50;54.40
13521;DHT22;6832;51.186;3.236;2023-08-20T10:29:52;30.50;54.40
13521;DHT22;6832;51.186;3.236;2023-08-20T10:32:20;30.60;54.50
13521;DHT22;6832;51.186;3.236;2023-08-20T10:34:50;30.70;54.40
13521;DHT22;6832;51.186;3.236;2023-08-20T10:37:26;30.80;54.30
13521;DHT22;6832;51.186;3.236;2023-08-20T10:39:54;30.90;54.40
13521;DHT22;6832;51.186;3.236;2023-08-20T10:42:26;31.00;54.40
13521;DHT22;6832;51.186;3.236;2023-08-20T10:44:59;31.20;54.60
13521;DHT22;6832;51.186;3.236;2023-08-20T10:47:41;31.30;54.60
13521;DHT22;6832;51.186;3.236;2023-08-20T10:50:08;31.50;54.70
13521;DHT22;6832;51.186;3.236;2023-08-20T10:52:39;31.60;54.70
13521;DHT22;6832;51.186;3.236;2023-08-20T10:55:07;31.80;54.60
13521;DHT22;6832;51.186;3.236;2023-08-20T10:57:36;32.00;54.60
13521;DHT22;6832;51.186;3.236;2023-08-20T11:00:04;32.20;54.50
13521;DHT22;6832;51.186;3.236;2023-08-20T11:02:37;32.40;54.40
13521;DHT22;6832;51.186;3.236;2023-08-20T11:05:16;32.60;54.30
13521;DHT22;6832;51.186;3.236;2023-08-20T11:07:45;32.80;54.00
13521;DHT22;6832;51.186;3.236;2023-08-20T11:10:13;33.10;53.90
13521;DHT22;6832;51.186;3.236;2023-08-20T11:12:42;33.20;53.90
13521;DHT22;6832;51.186;3.236;2023-08-20T11:15:10;33.40;53.60
13521;DHT22;6832;51.186;3.236;2023-08-20T11:17:41;33.60;53.30
13521;DHT22;6832;51.186;3.236;2023-08-20T11:20:09;33.80;53.60
13521;DHT22;6832;51.186;3.236;2023-08-20T11:22:38;34.00;52.90
13521;DHT22;6832;51.186;3.236;2023-08-20T11:25:06;34.20;52.70
13521;DHT22;6832;51.186;3.236;2023-08-20T11:27:37;34.30;52.50
13521;DHT22;6832;51.186;3.236;2023-08-20T11:30:09;34.50;52.50
13521;DHT22;6832;51.186;3.236;2023-08-20T11:32:38;34.60;52.10
13521;DHT22;6832;51.186;3.236;2023-08-20T11:35:05;34.70;52.10
13521;DHT22;6832;51.186;3.236;2023-08-20T11:37:33;34.80;52.00
13521;DHT22;6832;51.186;3.236;2023-08-20T11:40:00;34.90;51.80
13521;DHT22;6832;51.186;3.236;2023-08-20T11:42:27;35.00;51.60
13521;DHT22;6832;51.186;3.236;2023-08-20T11:44:55;35.10;51.30
13521;DHT22;6832;51.186;3.236;2023-08-20T11:47:24;35.30;51.00
13521;DHT22;6832;51.186;3.236;2023-08-20T11:50:03;35.30;50.80
13521;DHT22;6832;51.186;3.236;2023-08-20T11:52:31;35.40;50.20
13521;DHT22;6832;51.186;3.236;2023-08-20T11:54:59;35.40;50.40
13521;DHT22;6832;51.186;3.236;2023-08-20T11:57:26;35.40;50.20
13521;DHT22;6832;51.186;3.236;2023-08-20T11:59:55;35.40;50.10
13521;DHT22;6832;51.186;3.236;2023-08-20T12:02:26;35.40;49.90
13521;DHT22;6832;51.186;3.236;2023-08-20T12:04:56;35.30;49.50
13521;DHT22;6832;51.186;3.236;2023-08-20T12:07:25;35.30;49.50
13521;DHT22;6832;51.186;3.236;2023-08-20T12:09:53;35.20;49.50
13521;DHT22;6832;51.186;3.236;2023-08-20T12:12:20;35.10;49.50
13521;DHT22;6832;51.186;3.236;2023-08-20T12:14:48;35.00;49.50
13521;DHT22;6832;51.186;3.236;2023-08-20T12:17:17;34.90;49.50
13521;DHT22;6832;51.186;3.236;2023-08-20T12:19:45;34.90;49.50
13521;DHT22;6832;51.186;3.236;2023-08-20T12:22:12;34.80;49.60
13521;DHT22;6832;51.186;3.236;2023-08-20T12:24:39;34.70;49.80
13521;DHT22;6832;51.186;3.236;2023-08-20T12:27:06;34.70;50.00
13521;DHT22;6832;51.186;3.236;2023-08-20T12:29:33;34.70;50.20
13521;DHT22;6832;51.186;3.236;2023-08-20T12:32:01;34.70;50.30
13521;DHT22;6832;51.186;3.236;2023-08-20T12:34:30;34.70;50.40
13521;DHT22;6832;51.186;3.236;2023-08-20T12:36:58;34.70;50.40
13521;DHT22;6832;51.186;3.236;2023-08-20T12:39:25;34.80;50.40
13521;DHT22;6832;51.186;3.236;2023-08-20T12:41:52;34.90;50.50
13521;DHT22;6832;51.186;3.236;2023-08-20T12:44:19;34.90;50.50
13521;DHT22;6832;51.186;3.236;2023-08-20T12:46:46;35.00;50.40
13521;DHT22;6832;51.186;3.236;2023-08-20T12:49:13;35.10;50.40
13521;DHT22;6832;51.186;3.236;2023-08-20T12:51:40;35.20;50.30
13521;DHT22;6832;51.186;3.236;2023-08-20T12:54:08;35.20;50.10
13521;DHT22;6832;51.186;3.236;2023-08-20T12:56:35;35.30;49.90
13521;DHT22;6832;51.186;3.236;2023-08-20T12:59:02;35.40;49.90
13521;DHT22;6832;51.186;3.236;2023-08-20T13:01:29;35.50;49.80
13521;DHT22;6832;51.186;3.236;2023-08-20T13:03:57;35.50;49.70
13521;DHT22;6832;51.186;3.236;2023-08-20T13:06:24;35.60;49.60
13521;DHT22;6832;51.186;3.236;2023-08-20T13:08:52;35.70;49.60
13521;DHT22;6832;51.186;3.236;2023-08-20T13:11:21;35.70;49.40
13521;DHT22;6832;51.186;3.236;2023-08-20T13:13:49;35.80;49.20
13521;DHT22;6832;51.186;3.236;2023-08-20T13:16:18;35.80;49.20
13521;DHT22;6832;51.186;3.236;2023-08-20T13:18:46;35.90;49.00
13521;DHT22;6832;51.186;3.236;2023-08-20T13:21:13;35.90;49.00
13521;DHT22;6832;51.186;3.236;2023-08-20T13:23:40;35.90;48.90
13521;DHT22;6832;51.186;3.236;2023-08-20T13:26:07;35.90;49.40
13521;DHT22;6832;51.186;3.236;2023-08-20T13:28:35;35.90;48.70
13521;DHT22;6832;51.186;3.236;2023-08-20T13:31:02;35.90;48.60
13521;DHT22;6832;51.186;3.236;2023-08-20T13:33:29;35.90;48.70
13521;DHT22;6832;51.186;3.236;2023-08-20T13:35:56;35.90;48.70
13521;DHT22;6832;51.186;3.236;2023-08-20T13:38:24;35.80;48.60
13521;DHT22;6832;51.186;3.236;2023-08-20T13:40:51;35.80;48.60
13521;DHT22;6832;51.186;3.236;2023-08-20T13:43:19;35.70;48.60
13521;DHT22;6832;51.186;3.236;2023-08-20T13:45:47;35.70;48.60
13521;DHT22;6832;51.186;3.236;2023-08-20T13:48:14;35.60;48.50
13521;DHT22;6832;51.186;3.236;2023-08-20T13:50:41;35.50;49.20
13521;DHT22;6832;51.186;3.236;2023-08-20T13:53:08;35.40;48.60
13521;DHT22;6832;51.186;3.236;2023-08-20T13:55:35;35.40;48.60
13521;DHT22;6832;51.186;3.236;2023-08-20T13:58:03;35.30;48.60
13521;DHT22;6832;51.186;3.236;2023-08-20T14:00:30;35.20;48.70
13521;DHT22;6832;51.186;3.236;2023-08-20T14:02:59;35.10;48.70
13521;DHT22;6832;51.186;3.236;2023-08-20T14:05:25;35.00;48.60
13521;DHT22;6832;51.186;3.236;2023-08-20T14:07:54;34.90;48.70
13521;DHT22;6832;51.186;3.236;2023-08-20T14:10:21;34.90;48.80
13521;DHT22;6832;51.186;3.236;2023-08-20T14:12:48;34.80;48.80
13521;DHT22;6832;51.186;3.236;2023-08-20T14:15:15;34.80;48.90
13521;DHT22;6832;51.186;3.236;2023-08-20T14:17:42;34.70;48.90
13521;DHT22;6832;51.186;3.236;2023-08-20T14:20:11;34.60;49.00
13521;DHT22;6832;51.186;3.236;2023-08-20T14:22:39;34.60;49.10
13521;DHT22;6832;51.186;3.236;2023-08-20T14:25:06;34.40;49.10
13521;DHT22;6832;51.186;3.236;2023-08-20T14:27:33;34.30;49.10
13521;DHT22;6832;51.186;3.236;2023-08-20T14:30:00;34.30;49.20
13521;DHT22;6832;51.186;3.236;2023-08-20T14:32:28;34.20;49.30
13521;DHT22;6832;51.186;3.236;2023-08-20T14:34:55;34.10;49.20
13521;DHT22;6832;51.186;3.236;2023-08-20T14:37:23;34.10;49.40
13521;DHT22;6832;51.186;3.236;2023-08-20T14:39:50;34.00;49.30
13521;DHT22;6832;51.186;3.236;2023-08-20T14:42:17;33.90;49.30
13521;DHT22;6832;51.186;3.236;2023-08-20T14:44:44;33.90;49.40
13521;DHT22;6832;51.186;3.236;2023-08-20T14:47:11;33.80;49.50
13521;DHT22;6832;51.186;3.236;2023-08-20T14:49:38;33.70;49.50
13521;DHT22;6832;51.186;3.236;2023-08-20T14:52:05;33.60;49.60
13521;DHT22;6832;51.186;3.236;2023-08-20T14:54:33;33.60;49.70
13521;DHT22;6832;51.186;3.236;2023-08-20T14:57:00;33.60;49.80
13521;DHT22;6832;51.186;3.236;2023-08-20T14:59:28;33.50;49.80
13521;DHT22;6832;51.186;3.236;2023-08-20T15:01:55;33.50;49.80
13521;DHT22;6832;51.186;3.236;2023-08-20T15:04:21;33.50;49.80
13521;DHT22;6832;51.186;3.236;2023-08-20T15:06:48;33.40;49.90
13521;DHT22;6832;51.186;3.236;2023-08-20T15:09:15;33.40;50.00
13521;DHT22;6832;51.186;3.236;2023-08-20T15:11:44;33.30;49.90
13521;DHT22;6832;51.186;3.236;2023-08-20T15:14:11;33.30;50.00
13521;DHT22;6832;51.186;3.236;2023-08-20T15:16:38;33.20;50.00
13521;DHT22;6832;51.186;3.236;2023-08-20T15:19:06;33.20;50.20
13521;DHT22;6832;51.186;3.236;2023-08-20T15:21:33;33.10;50.20
13521;DHT22;6832;51.186;3.236;2023-08-20T15:24:00;33.10;50.20
13521;DHT22;6832;51.186;3.236;2023-08-20T15:26:27;33.10;50.20
13521;DHT22;6832;51.186;3.236;2023-08-20T15:28:55;33.10;50.20
13521;DHT22;6832;51.186;3.236;2023-08-20T15:31:22;33.00;50.20
13521;DHT22;6832;51.186;3.236;2023-08-20T15:33:49;33.00;50.30
13521;DHT22;6832;51.186;3.236;2023-08-20T15:36:17;33.00;50.40
13521;DHT22;6832;51.186;3.236;2023-08-20T15:38:44;33.00;50.40
13521;DHT22;6832;51.186;3.236;2023-08-20T15:41:11;32.90;50.40
13521;DHT22;6832;51.186;3.236;2023-08-20T15:43:38;32.90;50.40
13521;DHT22;6832;51.186;3.236;2023-08-20T15:46:06;32.90;50.50
13521;DHT22;6832;51.186;3.236;2023-08-20T15:48:33;32.90;50.50
13521;DHT22;6832;51.186;3.236;2023-08-20T15:51:00;32.80;51.10
13521;DHT22;6832;51.186;3.236;2023-08-20T15:53:27;32.80;50.50